Map

Track Data

SID SEASON NUMBER BASIN SUBBASIN NAME ISO_TIME NATURE LAT LON WMO_WIND WMO_PRES WMO_AGENCY TRACK_TYPE DIST2LAND LANDFALL IFLAG USA_AGENCY USA_ATCF_ID USA_LAT USA_LON USA_RECORD USA_STATUS USA_WIND USA_PRES USA_SSHS USA_R34_NE USA_R34_SE USA_R34_SW USA_R34_NW USA_R50_NE USA_R50_SE USA_R50_SW USA_R50_NW USA_R64_NE USA_R64_SE USA_R64_SW USA_R64_NW USA_POCI USA_ROCI USA_RMW USA_EYE TOKYO_LAT TOKYO_LON TOKYO_GRADE TOKYO_WIND TOKYO_PRES TOKYO_R50_DIR TOKYO_R50_LONG TOKYO_R50_SHORT TOKYO_R30_DIR TOKYO_R30_LONG TOKYO_R30_SHORT TOKYO_LAND CMA_LAT CMA_LON CMA_CAT CMA_WIND CMA_PRES HKO_LAT HKO_LON HKO_CAT HKO_WIND HKO_PRES NEWDELHI_LAT NEWDELHI_LON NEWDELHI_GRADE NEWDELHI_WIND NEWDELHI_PRES NEWDELHI_CI NEWDELHI_DP NEWDELHI_POCI REUNION_LAT REUNION_LON REUNION_TYPE REUNION_WIND REUNION_PRES REUNION_TNUM REUNION_CI REUNION_RMW REUNION_R34_NE REUNION_R34_SE REUNION_R34_SW REUNION_R34_NW REUNION_R50_NE REUNION_R50_SE REUNION_R50_SW REUNION_R50_NW REUNION_R64_NE REUNION_R64_SE REUNION_R64_SW REUNION_R64_NW BOM_LAT BOM_LON BOM_TYPE BOM_WIND BOM_PRES BOM_TNUM BOM_CI BOM_RMW BOM_R34_NE BOM_R34_SE BOM_R34_SW BOM_R34_NW BOM_R50_NE BOM_R50_SE BOM_R50_SW BOM_R50_NW BOM_R64_NE BOM_R64_SE BOM_R64_SW BOM_R64_NW BOM_ROCI BOM_POCI BOM_EYE BOM_POS_METHOD BOM_PRES_METHOD NADI_LAT NADI_LON NADI_CAT NADI_WIND NADI_PRES WELLINGTON_LAT WELLINGTON_LON WELLINGTON_WIND WELLINGTON_PRES DS824_LAT DS824_LON DS824_STAGE DS824_WIND DS824_PRES TD9636_LAT TD9636_LON TD9636_STAGE TD9636_WIND TD9636_PRES TD9635_LAT TD9635_LON TD9635_WIND TD9635_PRES TD9635_ROCI NEUMANN_LAT NEUMANN_LON NEUMANN_CLASS NEUMANN_WIND NEUMANN_PRES MLC_LAT MLC_LON MLC_CLASS MLC_WIND MLC_PRES USA_GUST BOM_GUST BOM_GUST_PER REUNION_GUST REUNION_GUST_PER USA_SEAHGT USA_SEARAD_NE USA_SEARAD_SE USA_SEARAD_SW USA_SEARAD_NW STORM_SPEED STORM_DIR
1993309N06072 1993 84 NI AS NOT_NAMED 1993-11-05 00:00:00 NR 5.60000 72.4000 spur-merge 584 568 O_____________ jtwc_io IO011993 5.60000 72.4000 20 -1 4 51
1993309N06072 1993 84 NI AS NOT_NAMED 1993-11-05 03:00:00 NR 5.71250 72.5400 spur-merge 568 544 P_____________ IO011993 5.71250 72.5400 20 -1 4 56
1993309N06072 1993 84 NI AS NOT_NAMED 1993-11-05 06:00:00 NR 5.80000 72.7000 spur-merge 544 527 O_____________ jtwc_io IO011993 5.80000 72.7000 20 -1 4 69
1993309N06072 1993 84 NI AS NOT_NAMED 1993-11-05 09:00:00 NR 5.85000 72.8925 spur-merge 520 503 P_____________ IO011993 5.85000 72.8925 22 -1 4 76
1993309N06072 1993 84 NI AS NOT_NAMED 1993-11-05 12:00:00 NR 5.90000 73.1000 spur-merge 503 479 O_____________ jtwc_io IO011993 5.90000 73.1000 25 -1 4 69
1993309N06072 1993 84 NI AS NOT_NAMED 1993-11-05 15:00:00 NR 5.99998 73.2925 spur-merge 479 456 P_____________ IO011993 5.99998 73.2925 25 -1 4 63
1993309N06072 1993 84 NI AS NOT_NAMED 1993-11-05 18:00:00 NR 6.10000 73.5000 spur-merge 456 432 O_____________ jtwc_io IO011993 6.10000 73.5000 25 -1 5 71
1993309N06072 1993 84 NI AS NOT_NAMED 1993-11-05 21:00:00 NR 6.15750 73.7425 spur-merge 432 408 P_____________ IO011993 6.15750 73.7425 25 -1 5 79
1993309N06072 1993 84 NI AS NOT_NAMED 1993-11-06 00:00:00 NR 6.20000 74.0000 spur-merge 408 393 O_____________ jtwc_io IO011993 6.20000 74.0000 25 -1 5 80
1993309N06072 1993 84 NI AS NOT_NAMED 1993-11-06 03:00:00 NR 6.24999 74.2500 spur-merge 385 361 P_____________ IO011993 6.24999 74.2500 25 -1 5 79
1993309N06072 1993 84 NI AS NOT_NAMED 1993-11-06 06:00:00 NR 6.30000 74.5000 spur-merge 361 345 O_____________ jtwc_io IO011993 6.30000 74.5000 25 -1 5 79
1993309N06072 1993 84 NI AS NOT_NAMED 1993-11-06 09:00:00 NR 6.34999 74.7500 spur-merge 338 314 P_____________ IO011993 6.34999 74.7500 27 -1 5 79
1993309N06072 1993 84 NI AS NOT_NAMED 1993-11-06 12:00:00 NR 6.40000 75.0000 spur-merge 314 298 O_____________ jtwc_io IO011993 6.40000 75.0000 30 -1 5 79
1993309N06072 1993 84 NI AS NOT_NAMED 1993-11-06 15:00:00 NR 6.44999 75.2500 spur-merge 290 267 P_____________ IO011993 6.44999 75.2500 30 -1 5 79
1993309N06072 1993 84 NI AS NOT_NAMED 1993-11-06 18:00:00 NR 6.50000 75.5000 spur-merge 267 251 O_____________ jtwc_io IO011993 6.50000 75.5000 30 -1 5 79
1993309N06072 1993 84 NI AS NOT_NAMED 1993-11-06 21:00:00 NR 6.54249 75.7500 spur-merge 244 220 P_____________ IO011993 6.54249 75.7500 30 -1 5 79
1993309N06072 1993 84 NI AS NOT_NAMED 1993-11-07 00:00:00 NR 6.60000 76.0000 spur-merge 220 198 O_____________ jtwc_io IO011993 6.60000 76.0000 30 -1 5 73
1993309N06072 1993 84 NI AS NOT_NAMED 1993-11-07 03:00:00 NR 6.69249 76.2500 spur-merge 191 170 P_____________ IO011993 6.69249 76.2500 30 -1 5 68
1993309N06072 1993 84 NI AS NOT_NAMED 1993-11-07 06:00:00 NR 6.80000 76.5000 spur-merge 170 149 O_____________ jtwc_io IO011993 6.80000 76.5000 30 -1 5 68
1993309N06072 1993 84 NI AS NOT_NAMED 1993-11-07 09:00:00 NR 6.89250 76.7575 spur-merge 145 127 P_____________ IO011993 6.89250 76.7575 30 -1 5 68
1993309N06072 1993 84 NI AS NOT_NAMED 1993-11-07 12:00:00 NR 7.00000 77.0000 spur-merge 127 112 O_____________ jtwc_io IO011993 7.00000 77.0000 30 -1 5 63
1993309N06072 1993 84 NI AS NOT_NAMED 1993-11-07 15:00:00 NR 7.13500 77.2300 spur-merge 112 89 P_____________ IO011993 7.13500 77.2300 27 -1 5 53
1993309N06072 1993 84 NI AS NOT_NAMED 1993-11-07 18:00:00 NR 7.30000 77.4000 spur-merge 89 67 O_____________ jtwc_io IO011993 7.30000 77.4000 25 -1 4 34
1993309N06072 1993 84 NI AS NOT_NAMED 1993-11-07 21:00:00 NR 7.49248 77.4725 spur-merge 67 44 P_____________ IO011993 7.49248 77.4725 25 -1 4 13
1993309N06072 1993 84 NI AS NOT_NAMED 1993-11-08 00:00:00 NR 7.70000 77.5000 spur-merge 44 24 O_____________ jtwc_io IO011993 7.70000 77.5000 25 -1 4 12
1993309N06072 1993 84 NI AS NOT_NAMED 1993-11-08 03:00:00 NR 7.90000 77.5650 spur-merge 24 11 P_____________ IO011993 7.90000 77.5650 25 -1 4 13
1993309N06072 1993 84 NI AS NOT_NAMED 1993-11-08 06:00:00 NR 8.10000 77.6000 spur-merge 11 0 O_____________ jtwc_io IO011993 8.10000 77.6000 25 -1 4 0
1993309N06072 1993 84 NI AS NOT_NAMED 1993-11-08 09:00:00 NR 8.30749 77.5800 spur-merge 0 0 P_____________ IO011993 8.30749 77.5800 22 -1 4 347
1993309N06072 1993 84 NI AS NOT_NAMED 1993-11-08 12:00:00 NR 8.50000 77.5000 spur-merge 0 0 O_____________ jtwc_io IO011993 8.50000 77.5000 20 -1 4 328
1993309N06072 1993 84 NI AS NOT_NAMED 1993-11-08 15:00:00 NR 8.65001 77.3650 spur-merge 0 0 P_____________ IO011993 8.65001 77.3650 20 -1 4 316
1993309N06072 1993 84 NI AS NOT_NAMED 1993-11-08 18:00:00 NR 8.80000 77.2000 spur-merge 0 0 O_____________ jtwc_io IO011993 8.80000 77.2000 20 -1 5 318
1993309N06072 1993 84 NI AS NOT_NAMED 1993-11-08 21:00:00 NR 8.99248 77.0575 spur-merge 0 0 P_____________ IO011993 8.99248 77.0575 20 -1 5 324
1993309N06072 1993 84 NI AS NOT_NAMED 1993-11-09 00:00:00 NR 9.20000 76.9000 spur-merge 0 0 O_____________ jtwc_io IO011993 9.20000 76.9000 20 -1 5 322
1993309N06072 1993 84 NI AS NOT_NAMED 1993-11-09 03:00:00 NR 9.39995 76.7299 spur-merge 0 0 P_____________ IO011993 9.39995 76.7299 20 -1 6 315
1993309N06072 1993 84 NI AS NOT_NAMED 1993-11-09 06:00:00 NR 9.60000 76.5000 spur-merge 0 0 O_____________ jtwc_io IO011993 9.60000 76.5000 20 -1 7 306
1993309N06072 1993 84 NI AS NOT_NAMED 1993-11-09 09:00:00 NR 9.80000 76.1800 spur-merge 10 10 P_____________ IO011993 9.80000 76.1800 20 -1 8 300
1993309N06072 1993 84 NI AS NOT_NAMED 1993-11-09 12:00:00 NR 10.0000 75.8000 spur-merge 43 43 O_____________ jtwc_io IO011993 10.0000 75.8000 20 -1 9 299
1993309N06072 1993 84 NI AS NOT_NAMED 1993-11-09 15:00:00 NR 10.2149 75.4150 spur-merge 83 83 P_____________ IO011993 10.2149 75.4150 20 -1 9 297
1993309N06072 1993 84 NI AS NOT_NAMED 1993-11-09 18:00:00 NR 10.4000 75.0000 spur-merge 108 108 O_____________ jtwc_io IO011993 10.4000 75.0000 20 -1 9 290
1993309N06072 1993 84 NI AS NOT_NAMED 1993-11-09 21:00:00 NR 10.5149 74.5649 spur-merge 146 146 P_____________ IO011993 10.5149 74.5649 20 -1 9 283
1993309N06072 1993 84 NI AS NOT_NAMED 1993-11-10 00:00:00 NR 10.6000 74.1000 spur-merge 192 192 O_____________ jtwc_io IO011993 10.6000 74.1000 20 -1 10 281
1993309N06072 1993 84 NI AS NOT_NAMED 1993-11-10 03:00:00 NR 10.7000 73.6075 spur-merge 227 227 P_____________ IO011993 10.7000 73.6075 20 -1 10 281
1993309N06072 1993 84 NI AS NOT_NAMED 1993-11-10 06:00:00 NR 10.8000 73.1000 spur-merge 265 265 O_____________ jtwc_io IO011993 10.8000 73.1000 20 -1 10 281
1993309N06072 1993 84 NI AS NOT_NAMED 1993-11-10 09:00:00 NR 10.9000 72.5925 spur-merge 308 308 P_____________ IO011993 10.9000 72.5925 20 -1 10 282
1993309N06072 1993 84 NI AS NOT_NAMED 1993-11-10 12:00:00 NR 11.0000 72.1000 spur-merge 352 352 O_____________ jtwc_io IO011993 11.0000 72.1000 20 -1 10 282
1993309N06072 1993 84 NI AS NOT_NAMED 1993-11-10 15:00:00 NR 11.0924 71.6424 spur-merge 396 396 P_____________ IO011993 11.0924 71.6424 20 -1 9 283
1993309N06072 1993 84 NI AS NOT_NAMED 1993-11-10 18:00:00 NR 11.2000 71.2000 spur-merge 430 430 O_____________ jtwc_io IO011993 11.2000 71.2000 20 -1 9 286
1993309N06072 1993 84 NI AS NOT_NAMED 1993-11-10 21:00:00 NR 11.3424 70.7500 spur-merge 476 472 P_____________ IO011993 11.3424 70.7500 22 -1 9 289
1993309N06072 1993 84 NI AS NOT_NAMED 1993-11-11 00:00:00 NR 11.5000 70.3000 spur-merge 510 510 O_____________ jtwc_io IO011993 11.5000 70.3000 25 -1 9 289
1993309N06072 1993 84 NI AS NOT_NAMED 1993-11-11 03:00:00 NR 11.6499 69.8500 spur-merge 560 557 P_____________ IO011993 11.6499 69.8500 25 -1 9 289
1993309N06072 1993 84 NI AS NOT_NAMED 1993-11-11 06:00:00 NR 11.8000 69.4000 spur-merge 597 597 O_____________ jtwc_io IO011993 11.8000 69.4000 25 -1 9 288
1993309N06072 1993 84 NI AS NOT_NAMED 1993-11-11 09:00:00 NR 11.9425 68.9424 spur-merge 648 642 P_____________ IO011993 11.9425 68.9424 25 -1 9 289
1993309N06072 1993 84 NI AS NOT_NAMED 1993-11-11 12:00:00 NR 12.1000 68.5000 spur-merge 673 673 O_____________ jtwc_io IO011993 12.1000 68.5000 25 -1 9 292
1993309N06072 1993 84 NI AS NOT_NAMED 1993-11-11 15:00:00 NR 12.2774 68.0849 spur-merge 700 700 P_____________ IO011993 12.2774 68.0849 25 -1 9 297
1993309N06072 1993 84 NI AS NOT_NAMED 1993-11-11 18:00:00 NR 12.5000 67.7000 spur-merge 730 730 O_____________ jtwc_io IO011993 12.5000 67.7000 25 -1 9 305
1993309N06072 1993 84 NI AS NOT_NAMED 1993-11-11 21:00:00 NR 12.7774 67.3424 spur-merge 757 757 P_____________ IO011993 12.7774 67.3424 27 -1 9 311
1993309N06072 1993 84 NI AS NOT_NAMED 1993-11-12 00:00:00 NR 13.1000 67.0000 spur-merge 774 774 O_____________ jtwc_io IO011993 13.1000 67.0000 30 -1 10 315
1993309N06072 1993 84 NI AS NOT_NAMED 1993-11-12 03:00:00 NR 13.4425 66.6499 spur-merge 799 794 P_____________ IO011993 13.4425 66.6499 30 -1 10 316
1993309N06072 1993 84 NI AS NOT_NAMED 1993-11-12 06:00:00 NR 13.8000 66.3000 spur-merge 810 810 O_____________ jtwc_io IO011993 13.8000 66.3000 30 -1 10 316
1993309N06072 1993 84 NI AS NOT_NAMED 1993-11-12 09:00:00 NR 14.1425 65.9499 spur-merge 838 834 P_____________ IO011993 14.1425 65.9499 32 -1 10 316
1993309N06072 1993 84 NI AS NOT_NAMED 1993-11-12 12:00:00 NR 14.5000 65.6000 spur-merge 855 855 O_____________ jtwc_io IO011993 14.5000 65.6000 35 0 10 318
1993309N06072 1993 84 NI AS NOT_NAMED 1993-11-12 15:00:00 NR 14.9000 65.2425 spur-merge 872 856 P_____________ IO011993 14.9000 65.2425 37 0 11 320
1993309N06072 1993 84 NI AS NOT_NAMED 1993-11-12 18:00:00 NR 15.3000 64.9000 spur-merge 856 816 O_____________ jtwc_io IO011993 15.3000 64.9000 40 0 10 320
1993309N06072 1993 84 NI AS NOT_NAMED 1993-11-12 21:00:00 NR 15.6499 64.5923 spur-merge 816 766 P_____________ IO011993 15.6626 64.5901 42 0 9 320
1993309N06072 1993 84 NI AS NOT_NAMED 1993-11-13 00:00:00 NR 16.0000 64.3000 spur-merge 766 718 O_____________ jtwc_io IO011993 16.0000 64.3000 45 0 9 322
1993309N06072 1993 84 NI AS NOT_NAMED 1993-11-13 03:00:00 NR 16.3925 63.9850 spur-merge 718 ______________ IO011993 -1 10 323

About IBTrACS Database

This database is a web-friendly format of International Best Track Archive for Climate Stewardship (IBTrACS), a global best track data archive curated by NOAA dating back to 1842.

Updated: 2021-11-26